createdAt,value
2024-04-18T00:00:28.594Z,0.00
2024-04-18T00:01:28.654Z,0.00
2024-04-18T00:02:28.560Z,0.00
2024-04-18T00:03:28.722Z,0.00
2024-04-18T00:04:28.686Z,0.00
2024-04-18T00:05:28.575Z,0.00
2024-04-18T00:06:28.533Z,0.00
2024-04-18T00:07:28.557Z,0.00
2024-04-18T00:08:28.519Z,0.00
2024-04-18T00:09:28.526Z,0.00
2024-04-18T00:10:28.567Z,0.00
2024-04-18T00:11:28.465Z,0.00
2024-04-18T00:12:28.495Z,0.00
2024-04-18T00:13:28.497Z,0.00
2024-04-18T00:14:28.482Z,0.00
2024-04-18T00:15:28.605Z,0.00
2024-04-18T00:16:28.463Z,0.00
2024-04-18T00:17:28.522Z,0.00
2024-04-18T00:18:28.552Z,0.00
2024-04-18T00:19:28.432Z,0.00
2024-04-18T00:20:28.474Z,0.00
2024-04-18T00:21:28.437Z,0.00
2024-04-18T00:22:28.451Z,0.00
2024-04-18T00:23:28.484Z,0.00
2024-04-18T00:24:28.447Z,0.00
2024-04-18T00:25:28.404Z,0.00
2024-04-18T00:26:28.375Z,0.00
2024-04-18T00:27:28.388Z,0.00
2024-04-18T00:28:28.388Z,0.00
2024-04-18T00:29:28.360Z,0.00
2024-04-18T00:30:28.388Z,0.00
2024-04-18T00:31:28.369Z,0.00
2024-04-18T00:32:28.687Z,0.00
2024-04-18T00:33:28.535Z,0.00
2024-04-18T00:34:28.358Z,0.00
2024-04-18T00:35:28.341Z,0.00
2024-04-18T00:36:28.358Z,0.00
2024-04-18T00:37:28.311Z,0.00
2024-04-18T00:38:28.404Z,0.00
2024-04-18T00:39:28.348Z,0.00
2024-04-18T00:40:28.652Z,0.00
2024-04-18T00:41:28.398Z,0.00
2024-04-18T00:42:28.329Z,0.00
2024-04-18T00:43:28.265Z,0.00
2024-04-18T00:44:28.532Z,0.00
2024-04-18T00:45:28.456Z,0.00
2024-04-18T00:46:28.338Z,0.00
2024-04-18T00:47:28.302Z,0.00
2024-04-18T00:48:28.379Z,0.00
2024-04-18T00:49:28.279Z,0.00
2024-04-18T00:50:28.277Z,0.00
2024-04-18T00:51:28.328Z,0.00
2024-04-18T00:52:28.288Z,0.00
2024-04-18T00:53:28.191Z,0.00
2024-04-18T00:54:28.199Z,0.00
2024-04-18T00:55:28.196Z,0.00
2024-04-18T00:56:28.209Z,0.00
2024-04-18T00:57:28.174Z,0.00
2024-04-18T00:58:28.247Z,0.00
2024-04-18T00:59:28.173Z,0.00
2024-04-18T01:00:28.215Z,0.00
2024-04-18T01:01:28.217Z,0.00
2024-04-18T01:02:28.253Z,0.00
2024-04-18T01:03:28.261Z,0.00
2024-04-18T01:04:28.281Z,0.00
2024-04-18T01:05:28.112Z,0.00
2024-04-18T01:06:28.197Z,0.00
2024-04-18T01:07:28.101Z,0.00
2024-04-18T01:08:28.112Z,0.00
2024-04-18T01:09:28.109Z,0.00
2024-04-18T01:10:28.215Z,0.00
2024-04-18T01:11:28.140Z,0.00
2024-04-18T01:12:28.106Z,0.00
2024-04-18T01:13:28.142Z,0.00
2024-04-18T01:14:28.131Z,0.00
2024-04-18T01:15:28.162Z,0.00
2024-04-18T01:16:28.133Z,0.00
2024-04-18T01:17:28.225Z,0.00
2024-04-18T01:18:28.106Z,0.00
2024-04-18T01:19:28.086Z,0.00
2024-04-18T01:20:28.008Z,0.00
2024-04-18T01:21:28.075Z,0.00
2024-04-18T01:22:28.029Z,0.00
2024-04-18T01:23:28.017Z,0.00
2024-04-18T01:24:28.118Z,0.00
2024-04-18T01:25:27.983Z,0.00
2024-04-18T01:26:27.990Z,0.00
2024-04-18T01:27:27.970Z,0.00
2024-04-18T01:28:28.004Z,0.00
2024-04-18T01:29:28.300Z,0.00
2024-04-18T01:30:28.287Z,0.00
2024-04-18T01:31:27.954Z,0.00
2024-04-18T01:32:27.985Z,0.00
2024-04-18T01:33:27.997Z,0.00
2024-04-18T01:34:28.289Z,0.00
2024-04-18T01:35:27.960Z,0.00
2024-04-18T01:36:27.974Z,0.00
2024-04-18T01:37:27.958Z,0.00
2024-04-18T01:38:27.894Z,0.00
2024-04-18T01:39:27.952Z,0.00
2024-04-18T01:40:28.665Z,0.00
2024-04-18T01:41:27.880Z,0.00
2024-04-18T01:42:28.062Z,0.00
2024-04-18T01:43:27.860Z,0.00
2024-04-18T01:44:27.916Z,0.00
2024-04-18T01:45:27.973Z,0.00
2024-04-18T01:46:27.888Z,0.00
2024-04-18T01:47:27.906Z,0.00
2024-04-18T01:48:28.138Z,0.00
2024-04-18T01:49:28.031Z,0.00
2024-04-18T01:50:27.821Z,0.00
2024-04-18T01:51:27.861Z,0.00
2024-04-18T01:52:27.859Z,0.00
2024-04-18T01:53:27.798Z,0.00
2024-04-18T01:54:27.870Z,0.00
2024-04-18T01:55:27.829Z,0.00
2024-04-18T01:56:27.787Z,0.00
2024-04-18T01:57:27.799Z,0.00
2024-04-18T01:58:27.808Z,0.00
2024-04-18T01:59:27.753Z,0.00
2024-04-18T02:00:27.838Z,0.00
2024-04-18T02:01:27.806Z,0.00
2024-04-18T02:02:27.745Z,0.00
2024-04-18T02:03:28.066Z,0.00
2024-04-18T02:04:28.565Z,0.00
2024-04-18T02:05:27.736Z,0.00
2024-04-18T02:06:27.765Z,0.00
2024-04-18T02:07:27.746Z,0.00
2024-04-18T02:08:27.735Z,0.00
2024-04-18T02:09:27.777Z,0.00
2024-04-18T02:10:27.719Z,0.00
2024-04-18T02:11:27.734Z,0.00
2024-04-18T02:12:27.700Z,0.00
2024-04-18T02:13:27.714Z,0.00
2024-04-18T02:14:27.655Z,0.00
2024-04-18T02:15:27.760Z,0.00
2024-04-18T02:16:27.674Z,0.00
2024-04-18T02:17:27.721Z,0.00
2024-04-18T02:18:27.720Z,0.00
2024-04-18T02:19:27.638Z,0.00
2024-04-18T02:20:27.677Z,0.00
2024-04-18T02:21:27.684Z,0.00
2024-04-18T02:22:27.677Z,0.00
2024-04-18T02:23:27.750Z,0.00
2024-04-18T02:24:27.696Z,0.00
2024-04-18T02:25:27.633Z,0.00
2024-04-18T02:26:27.584Z,0.00
2024-04-18T02:27:27.592Z,0.00
2024-04-18T02:28:27.561Z,0.00
2024-04-18T02:29:27.759Z,0.00
2024-04-18T02:30:27.950Z,0.00
2024-04-18T02:31:27.542Z,0.00
2024-04-18T02:32:27.654Z,0.00
2024-04-18T02:33:27.553Z,0.00
2024-04-18T02:34:27.549Z,0.00
2024-04-18T02:35:27.531Z,0.00
2024-04-18T02:36:27.525Z,0.00
2024-04-18T02:37:27.507Z,0.00
2024-04-18T02:38:27.514Z,0.00
2024-04-18T02:39:27.528Z,0.00
2024-04-18T02:40:27.874Z,0.00
2024-04-18T02:41:27.492Z,0.00
2024-04-18T02:42:27.589Z,0.00
2024-04-18T02:43:27.468Z,0.00
2024-04-18T02:44:27.668Z,0.00
2024-04-18T02:45:27.531Z,0.00
2024-04-18T02:46:27.502Z,0.00
2024-04-18T02:47:27.807Z,0.00
2024-04-18T02:48:27.512Z,0.00
2024-04-18T02:49:27.427Z,0.00
2024-04-18T02:50:27.476Z,0.00
2024-04-18T02:51:27.461Z,0.00
2024-04-18T02:52:27.433Z,0.00
2024-04-18T02:53:27.408Z,0.00
2024-04-18T02:54:27.424Z,0.00
2024-04-18T02:55:27.689Z,0.00
2024-04-18T02:56:27.546Z,0.00
2024-04-18T02:57:27.436Z,0.00
2024-04-18T02:58:27.403Z,0.00
2024-04-18T02:59:27.570Z,0.00
2024-04-18T03:00:27.469Z,0.00
2024-04-18T03:01:27.442Z,0.00
2024-04-18T03:02:27.614Z,0.00
2024-04-18T03:03:27.405Z,0.00
2024-04-18T03:04:27.409Z,0.00
2024-04-18T03:05:27.386Z,0.00
2024-04-18T03:06:27.438Z,0.00
2024-04-18T03:07:27.376Z,0.00
2024-04-18T03:08:27.325Z,0.00
2024-04-18T03:09:27.463Z,0.00
2024-04-18T03:10:27.293Z,0.00
2024-04-18T03:11:27.337Z,0.00
2024-04-18T03:12:27.329Z,0.00
2024-04-18T03:13:27.306Z,0.00
2024-04-18T03:14:27.283Z,0.00
2024-04-18T03:15:27.294Z,0.00
2024-04-18T03:16:27.250Z,0.00
2024-04-18T03:17:27.317Z,0.00
2024-04-18T03:18:27.391Z,0.00
2024-04-18T03:19:27.281Z,0.00
2024-04-18T03:20:27.243Z,0.00
2024-04-18T03:21:27.282Z,0.00
2024-04-18T03:22:27.462Z,0.00
2024-04-18T03:23:27.234Z,0.00
2024-04-18T03:24:27.229Z,0.00
2024-04-18T03:25:27.197Z,0.00
2024-04-18T03:26:27.220Z,0.00
2024-04-18T03:27:27.313Z,0.00
2024-04-18T03:28:27.191Z,0.00
2024-04-18T03:29:27.173Z,0.00
2024-04-18T03:30:27.244Z,0.00
2024-04-18T03:31:27.192Z,0.00
2024-04-18T03:32:27.399Z,0.00
2024-04-18T03:33:27.191Z,0.00
2024-04-18T03:34:27.132Z,0.00
2024-04-18T03:35:27.178Z,0.00
2024-04-18T03:36:27.170Z,0.00
2024-04-18T03:37:27.154Z,0.00
2024-04-18T03:38:27.103Z,0.00
2024-04-18T03:39:27.160Z,0.00
2024-04-18T03:40:27.204Z,0.00
2024-04-18T03:41:27.107Z,0.00
2024-04-18T03:42:27.261Z,0.00
2024-04-18T03:43:27.378Z,0.00
2024-04-18T03:44:27.085Z,0.00
2024-04-18T03:45:27.095Z,0.00
2024-04-18T03:46:27.049Z,0.00
2024-04-18T03:47:27.076Z,0.00
2024-04-18T03:48:27.260Z,0.00
2024-04-18T03:49:27.079Z,0.00
2024-04-18T03:50:27.051Z,0.00
2024-04-18T03:51:27.028Z,0.00
2024-04-18T03:52:27.042Z,0.00
2024-04-18T03:53:27.041Z,0.00
2024-04-18T03:54:27.090Z,0.00
2024-04-18T03:55:27.168Z,0.00
2024-04-18T03:56:26.987Z,0.00
2024-04-18T03:57:27.055Z,0.00
2024-04-18T03:58:27.251Z,0.00
2024-04-18T03:59:27.407Z,0.00
2024-04-18T04:00:27.054Z,0.00
2024-04-18T04:01:27.251Z,0.00
2024-04-18T04:02:26.961Z,0.00
2024-04-18T04:03:26.991Z,0.00
2024-04-18T04:04:27.068Z,0.00
2024-04-18T04:05:26.911Z,0.00
2024-04-18T04:06:26.976Z,0.00
2024-04-18T04:07:26.958Z,0.00
2024-04-18T04:08:26.924Z,0.00
2024-04-18T04:09:26.994Z,0.00
2024-04-18T04:10:26.879Z,0.00
2024-04-18T04:11:26.957Z,0.00
2024-04-18T04:12:26.997Z,0.00
2024-04-18T04:13:27.107Z,0.00
2024-04-18T04:14:26.915Z,0.00
2024-04-18T04:15:26.934Z,0.00
2024-04-18T04:16:26.863Z,0.00
2024-04-18T04:17:26.880Z,0.00
2024-04-18T04:18:27.025Z,0.00
2024-04-18T04:19:27.121Z,0.00
2024-04-18T04:20:26.832Z,0.00
2024-04-18T04:21:26.963Z,0.00
2024-04-18T04:22:27.877Z,0.00
2024-04-18T04:23:26.812Z,0.00
2024-04-18T04:24:26.873Z,0.00
2024-04-18T04:25:26.781Z,0.00
2024-04-18T04:26:26.803Z,0.00
2024-04-18T04:27:26.828Z,0.00
2024-04-18T04:28:26.817Z,0.00
2024-04-18T04:29:26.757Z,0.00
2024-04-18T04:30:26.828Z,0.00
2024-04-18T04:31:26.753Z,0.00
2024-04-18T04:32:26.811Z,0.00
2024-04-18T04:33:26.759Z,0.00
2024-04-18T04:34:26.778Z,0.00
2024-04-18T04:35:26.729Z,0.00
2024-04-18T04:36:26.773Z,5.62
2024-04-18T04:37:26.985Z,5.62
2024-04-18T04:38:26.707Z,5.62
2024-04-18T04:39:26.729Z,5.62
2024-04-18T04:40:26.885Z,5.62
2024-04-18T04:41:26.706Z,5.62
2024-04-18T04:42:26.746Z,5.62
2024-04-18T04:43:26.716Z,5.62
2024-04-18T04:44:26.748Z,5.62
2024-04-18T04:45:26.673Z,5.62
2024-04-18T04:46:26.716Z,5.62
2024-04-18T04:47:26.700Z,5.62
2024-04-18T04:48:26.739Z,5.62
2024-04-18T04:49:26.770Z,11.25
2024-04-18T04:50:26.617Z,5.62
2024-04-18T04:51:26.665Z,5.62
2024-04-18T04:52:26.602Z,5.62
2024-04-18T04:53:26.603Z,5.62
2024-04-18T04:54:26.854Z,5.62
2024-04-18T04:55:26.619Z,5.62
2024-04-18T04:56:26.615Z,5.62
2024-04-18T04:57:26.610Z,5.62
2024-04-18T04:58:26.598Z,11.25
2024-04-18T04:59:26.556Z,11.25
2024-04-18T05:00:26.672Z,11.25
2024-04-18T05:01:26.613Z,11.25
2024-04-18T05:02:26.576Z,16.88
2024-04-18T05:03:26.622Z,16.88
2024-04-18T05:04:26.566Z,16.88
2024-04-18T05:05:26.542Z,16.88
2024-04-18T05:06:26.617Z,16.88
2024-04-18T05:07:26.549Z,16.88
2024-04-18T05:08:26.530Z,16.88
2024-04-18T05:09:26.576Z,22.50
2024-04-18T05:10:26.498Z,22.50
2024-04-18T05:11:26.650Z,22.50
2024-04-18T05:12:26.533Z,28.12
2024-04-18T05:13:26.464Z,28.12
2024-04-18T05:14:26.471Z,33.75
2024-04-18T05:15:26.490Z,39.38
2024-04-18T05:16:26.691Z,56.25
2024-04-18T05:17:26.432Z,73.12
2024-04-18T05:18:26.462Z,73.12
2024-04-18T05:19:26.442Z,73.12
2024-04-18T05:20:26.417Z,73.12
2024-04-18T05:21:26.472Z,67.50
2024-04-18T05:22:26.409Z,73.12
2024-04-18T05:23:26.444Z,73.12
2024-04-18T05:24:26.419Z,84.38
2024-04-18T05:25:26.973Z,78.75
2024-04-18T05:26:26.417Z,84.38
2024-04-18T05:27:26.623Z,84.38
2024-04-18T05:28:26.403Z,90.00
2024-04-18T05:29:26.355Z,90.00
2024-04-18T05:30:26.388Z,90.00
2024-04-18T05:31:26.345Z,90.00
2024-04-18T05:32:26.412Z,95.62
2024-04-18T05:33:26.437Z,112.50
2024-04-18T05:34:26.320Z,118.12
2024-04-18T05:35:26.419Z,135.00
2024-04-18T05:36:26.366Z,135.00
2024-04-18T05:37:26.366Z,118.12
2024-04-18T05:38:26.320Z,168.75
2024-04-18T05:39:26.421Z,163.12
2024-04-18T05:40:26.394Z,123.75
2024-04-18T05:41:26.313Z,101.25
2024-04-18T05:42:26.307Z,84.38
2024-04-18T05:43:26.329Z,112.50
2024-04-18T05:44:26.292Z,118.12
2024-04-18T05:45:26.286Z,140.62
2024-04-18T05:46:26.253Z,112.50
2024-04-18T05:47:26.351Z,112.50
2024-04-18T05:48:26.269Z,112.50
2024-04-18T05:49:26.271Z,123.75
2024-04-18T05:50:26.220Z,140.62
2024-04-18T05:51:26.371Z,123.75
2024-04-18T05:52:26.280Z,106.88
2024-04-18T05:53:26.241Z,90.00
2024-04-18T05:54:26.252Z,90.00
2024-04-18T05:55:26.211Z,106.88
2024-04-18T05:56:26.243Z,90.00
2024-04-18T05:57:26.257Z,73.12
2024-04-18T05:58:26.246Z,61.88
2024-04-18T05:59:26.188Z,50.62
2024-04-18T06:00:26.228Z,45.00
2024-04-18T06:01:26.210Z,45.00
2024-04-18T06:02:26.221Z,39.38
2024-04-18T06:03:26.189Z,39.38
2024-04-18T06:04:26.201Z,33.75
2024-04-18T06:05:26.129Z,33.75
2024-04-18T06:06:26.137Z,39.38
2024-04-18T06:07:26.127Z,39.38
2024-04-18T06:08:26.253Z,56.25
2024-04-18T06:09:26.298Z,67.50
2024-04-18T06:10:26.119Z,61.88
2024-04-18T06:11:26.180Z,61.88
2024-04-18T06:12:26.138Z,56.25
2024-04-18T06:13:26.113Z,67.50
2024-04-18T06:14:26.174Z,61.88
2024-04-18T06:15:26.069Z,61.88
2024-04-18T06:16:26.128Z,61.88
2024-04-18T06:17:26.074Z,61.88
2024-04-18T06:18:26.113Z,56.25
2024-04-18T06:19:29.449Z,56.25
2024-04-18T06:20:26.180Z,56.25
2024-04-18T06:21:26.079Z,61.88
2024-04-18T06:22:26.013Z,61.88
2024-04-18T06:23:26.031Z,56.25
2024-04-18T06:24:26.024Z,50.62
2024-04-18T06:25:26.014Z,45.00
2024-04-18T06:26:26.037Z,50.62
2024-04-18T06:27:26.083Z,50.62
2024-04-18T06:28:25.977Z,50.62
2024-04-18T06:29:25.980Z,45.00
2024-04-18T06:30:25.986Z,33.75
2024-04-18T06:31:26.023Z,39.38
2024-04-18T06:32:25.988Z,45.00
2024-04-18T06:33:26.124Z,56.25
2024-04-18T06:34:26.989Z,61.88
2024-04-18T06:35:25.922Z,67.50
2024-04-18T06:36:25.978Z,73.12
2024-04-18T06:37:25.916Z,67.50
2024-04-18T06:38:25.949Z,84.38
2024-04-18T06:39:25.985Z,90.00
2024-04-18T06:40:25.893Z,90.00
2024-04-18T06:41:25.909Z,95.62
2024-04-18T06:42:25.920Z,90.00
2024-04-18T06:43:25.936Z,90.00
2024-04-18T06:44:25.906Z,95.62
2024-04-18T06:45:25.908Z,106.88
2024-04-18T06:46:25.899Z,95.62
2024-04-18T06:47:25.906Z,90.00
2024-04-18T06:48:25.916Z,90.00
2024-04-18T06:49:25.840Z,106.88
2024-04-18T06:50:27.059Z,112.50
2024-04-18T06:51:26.073Z,118.12
2024-04-18T06:52:25.821Z,106.88
2024-04-18T06:53:25.816Z,118.12
2024-04-18T06:54:25.848Z,123.75
2024-04-18T06:55:25.817Z,151.88
2024-04-18T06:56:25.825Z,180.00
2024-04-18T06:57:25.835Z,247.50
2024-04-18T06:58:25.815Z,208.12
2024-04-18T06:59:25.765Z,213.75
2024-04-18T07:00:25.807Z,208.12
2024-04-18T07:01:25.907Z,208.12
2024-04-18T07:02:25.799Z,219.38
2024-04-18T07:03:26.096Z,225.00
2024-04-18T07:04:25.812Z,219.38
2024-04-18T07:05:25.804Z,219.38
2024-04-18T07:06:25.743Z,213.75
2024-04-18T07:07:25.711Z,230.62
2024-04-18T07:08:25.980Z,247.50
2024-04-18T07:09:25.767Z,236.25
2024-04-18T07:10:25.729Z,230.62
2024-04-18T07:11:25.720Z,230.62
2024-04-18T07:12:25.710Z,270.00
2024-04-18T07:13:25.730Z,281.25
2024-04-18T07:14:25.689Z,303.75
2024-04-18T07:15:25.705Z,286.88
2024-04-18T07:16:25.659Z,303.75
2024-04-18T07:17:25.805Z,343.12
2024-04-18T07:18:25.739Z,360.00
2024-04-18T07:19:25.696Z,590.62
2024-04-18T07:20:26.657Z,624.38
2024-04-18T07:21:25.712Z,607.50
2024-04-18T07:22:25.623Z,320.62
2024-04-18T07:23:25.616Z,292.50
2024-04-18T07:24:25.646Z,292.50
2024-04-18T07:25:25.622Z,292.50
2024-04-18T07:26:25.624Z,247.50
2024-04-18T07:27:25.615Z,253.12
2024-04-18T07:28:25.582Z,275.62
2024-04-18T07:29:25.588Z,298.12
2024-04-18T07:30:25.630Z,320.62
2024-04-18T07:31:25.566Z,320.62
2024-04-18T07:32:25.597Z,326.25
2024-04-18T07:33:25.674Z,331.88
2024-04-18T07:34:25.657Z,331.88
2024-04-18T07:35:25.552Z,337.50
2024-04-18T07:36:25.694Z,348.75
2024-04-18T07:37:27.779Z,354.38
2024-04-18T07:38:25.518Z,326.25
2024-04-18T07:39:25.526Z,303.75
2024-04-18T07:40:25.522Z,298.12
2024-04-18T07:41:25.512Z,331.88
2024-04-18T07:42:26.020Z,399.38
2024-04-18T07:43:25.511Z,365.62
2024-04-18T07:44:25.477Z,405.00
2024-04-18T07:45:25.502Z,337.50
2024-04-18T07:46:25.464Z,348.75
2024-04-18T07:47:25.560Z,348.75
2024-04-18T07:48:25.575Z,371.25
2024-04-18T07:49:25.521Z,382.50
2024-04-18T07:50:25.449Z,393.75
2024-04-18T07:51:25.478Z,388.12
2024-04-18T07:52:25.522Z,371.25
2024-04-18T07:53:26.467Z,326.25
2024-04-18T07:54:25.505Z,292.50
2024-04-18T07:55:25.404Z,253.12
2024-04-18T07:56:26.023Z,230.62
2024-04-18T07:57:25.871Z,225.00
2024-04-18T07:58:25.895Z,270.00
2024-04-18T07:59:26.163Z,309.38
2024-04-18T08:00:26.284Z,393.75
2024-04-18T08:01:26.847Z,433.12
2024-04-18T08:02:27.022Z,393.75
2024-04-18T08:03:27.473Z,388.12
2024-04-18T08:04:45.156Z,343.12
2024-04-18T08:05:28.392Z,331.88
2024-04-18T08:06:28.100Z,315.00
2024-04-18T08:07:28.401Z,320.62
2024-04-18T08:08:29.086Z,416.25
2024-04-18T08:09:27.925Z,348.75
2024-04-18T08:10:33.067Z,427.50
2024-04-18T08:11:53.357Z,455.62
2024-04-18T08:12:29.812Z,607.50
2024-04-18T08:13:29.948Z,601.88
2024-04-18T08:14:29.930Z,523.12
2024-04-18T08:16:26.420Z,438.75
2024-04-18T08:17:25.493Z,461.25
2024-04-18T08:18:25.240Z,450.00
2024-04-18T08:19:25.236Z,466.88
2024-04-18T08:20:25.275Z,438.75
2024-04-18T08:21:25.245Z,405.00
2024-04-18T08:22:25.227Z,388.12
2024-04-18T08:23:25.207Z,348.75
2024-04-18T08:24:25.217Z,348.75
2024-04-18T08:25:25.272Z,354.38
2024-04-18T08:26:25.253Z,331.88
2024-04-18T08:27:25.223Z,348.75
2024-04-18T08:28:25.174Z,343.12
2024-04-18T08:29:25.185Z,360.00
2024-04-18T08:30:25.240Z,360.00
2024-04-18T08:31:25.221Z,309.38
2024-04-18T08:32:25.145Z,292.50
2024-04-18T08:33:25.200Z,286.88
2024-04-18T08:34:26.055Z,275.62
2024-04-18T08:35:25.330Z,270.00
2024-04-18T08:36:25.211Z,275.62
2024-04-18T08:37:25.123Z,281.25
2024-04-18T08:38:25.112Z,315.00
2024-04-18T08:39:25.131Z,343.12
2024-04-18T08:40:25.124Z,388.12
2024-04-18T08:41:25.093Z,427.50
2024-04-18T08:42:25.107Z,500.62
2024-04-18T08:43:25.067Z,500.62
2024-04-18T08:44:25.061Z,534.38
2024-04-18T08:45:25.204Z,433.12
2024-04-18T08:46:25.082Z,405.00
2024-04-18T08:47:25.180Z,427.50
2024-04-18T08:48:25.257Z,444.38
2024-04-18T08:49:25.115Z,461.25
2024-04-18T08:50:25.019Z,489.38
2024-04-18T08:51:25.067Z,511.88
2024-04-18T08:52:25.004Z,630.00
2024-04-18T08:53:24.988Z,568.12
2024-04-18T08:54:24.990Z,540.00
2024-04-18T08:55:25.125Z,601.88
2024-04-18T08:56:24.991Z,500.62
2024-04-18T08:57:24.989Z,450.00
2024-04-18T08:58:24.981Z,433.12
2024-04-18T08:59:24.960Z,450.00
2024-04-18T09:00:25.010Z,421.88
2024-04-18T09:01:24.977Z,399.38
2024-04-18T09:02:24.940Z,382.50
2024-04-18T09:03:24.969Z,376.88
2024-04-18T09:04:24.947Z,388.12
2024-04-18T09:05:24.963Z,393.75
2024-04-18T09:06:24.946Z,410.62
2024-04-18T09:07:24.890Z,416.25
2024-04-18T09:08:24.899Z,427.50
2024-04-18T09:09:24.969Z,433.12
2024-04-18T09:10:24.996Z,433.12
2024-04-18T09:11:24.928Z,438.75
2024-04-18T09:12:24.936Z,444.38
2024-04-18T09:13:27.077Z,455.62
2024-04-18T09:14:24.840Z,455.62
2024-04-18T09:15:24.943Z,500.62
2024-04-18T09:16:24.863Z,511.88
2024-04-18T09:17:24.878Z,511.88
2024-04-18T09:18:24.930Z,534.38
2024-04-18T09:19:24.884Z,601.88
2024-04-18T09:20:24.803Z,658.12
2024-04-18T09:21:24.835Z,534.38
2024-04-18T09:22:24.783Z,523.12
2024-04-18T09:23:24.782Z,500.62
2024-04-18T09:24:24.830Z,511.88
2024-04-18T09:25:24.810Z,995.62
2024-04-18T09:26:24.759Z,461.25
2024-04-18T09:27:24.783Z,455.62
2024-04-18T09:28:24.750Z,393.75
2024-04-18T09:29:24.736Z,388.12
2024-04-18T09:30:24.807Z,360.00
2024-04-18T09:31:31.063Z,343.12
2024-04-18T09:32:25.742Z,365.62
2024-04-18T09:33:24.956Z,393.75
2024-04-18T09:34:24.816Z,438.75
2024-04-18T09:35:24.735Z,365.62
2024-04-18T09:36:24.741Z,331.88
2024-04-18T09:37:24.687Z,292.50
2024-04-18T09:38:24.673Z,286.88
2024-04-18T09:39:24.684Z,270.00
2024-04-18T09:40:24.689Z,253.12
2024-04-18T09:41:24.715Z,253.12
2024-04-18T09:42:24.704Z,258.75
2024-04-18T09:43:24.654Z,264.38
2024-04-18T09:44:27.085Z,275.62
2024-04-18T09:45:24.683Z,286.88
2024-04-18T09:46:24.653Z,292.50
2024-04-18T09:47:24.615Z,315.00
2024-04-18T09:48:25.046Z,309.38
2024-04-18T09:49:24.842Z,315.00
2024-04-18T09:50:24.606Z,309.38
2024-04-18T09:51:25.334Z,337.50
2024-04-18T09:52:24.591Z,354.38
2024-04-18T09:53:24.611Z,365.62
2024-04-18T09:54:24.674Z,579.38
2024-04-18T09:55:26.030Z,264.38
2024-04-18T09:56:24.555Z,208.12
2024-04-18T09:57:24.606Z,180.00
2024-04-18T09:58:24.537Z,163.12
2024-04-18T09:59:24.530Z,163.12
2024-04-18T10:00:24.608Z,168.75
2024-04-18T10:01:24.549Z,174.38
2024-04-18T10:02:24.618Z,202.50
2024-04-18T10:03:24.611Z,241.88
2024-04-18T10:04:24.530Z,258.75
2024-04-18T10:05:24.482Z,247.50
2024-04-18T10:06:24.508Z,253.12
2024-04-18T10:07:24.491Z,270.00
2024-04-18T10:08:24.490Z,286.88
2024-04-18T10:09:24.498Z,303.75
2024-04-18T10:10:24.472Z,320.62
2024-04-18T10:11:24.644Z,343.12
2024-04-18T10:12:24.455Z,382.50
2024-04-18T10:13:26.243Z,410.62
2024-04-18T10:14:24.497Z,438.75
2024-04-18T10:15:24.527Z,500.62
2024-04-18T10:16:25.039Z,410.62
2024-04-18T10:17:24.584Z,371.25
2024-04-18T10:18:24.510Z,343.12
2024-04-18T10:19:24.539Z,331.88
2024-04-18T10:20:24.413Z,337.50
2024-04-18T10:21:33.038Z,354.38
2024-04-18T10:23:24.389Z,343.12
2024-04-18T10:24:24.439Z,376.88
2024-04-18T10:25:24.405Z,601.88
2024-04-18T10:26:24.359Z,371.25
2024-04-18T10:27:24.527Z,348.75
2024-04-18T10:28:24.426Z,326.25
2024-04-18T10:29:24.323Z,298.12
2024-04-18T10:30:24.406Z,275.62
2024-04-18T10:31:24.350Z,270.00
2024-04-18T10:32:24.317Z,275.62
2024-04-18T10:33:24.384Z,281.25
2024-04-18T10:34:24.310Z,303.75
2024-04-18T10:35:24.374Z,309.38
2024-04-18T10:36:24.607Z,337.50
2024-04-18T10:37:24.419Z,455.62
2024-04-18T10:38:24.467Z,978.75
2024-04-18T10:39:24.506Z,1040.62
2024-04-18T10:40:24.357Z,1068.75
2024-04-18T10:41:24.282Z,1096.88
2024-04-18T10:42:24.608Z,1108.12
2024-04-18T10:43:24.239Z,748.12
2024-04-18T10:44:24.224Z,945.00
2024-04-18T10:45:24.284Z,973.12
2024-04-18T10:46:24.214Z,950.62
2024-04-18T10:47:24.278Z,995.62
2024-04-18T10:48:24.527Z,1040.62
2024-04-18T10:49:24.279Z,1063.12
2024-04-18T10:50:24.201Z,1057.50
2024-04-18T10:51:24.263Z,1057.50
2024-04-18T10:52:24.175Z,1051.88
2024-04-18T10:53:24.220Z,1057.50
2024-04-18T10:54:24.178Z,1091.25
2024-04-18T10:55:24.233Z,1108.12
2024-04-18T10:56:24.164Z,1136.25
2024-04-18T10:57:24.166Z,1170.00
2024-04-18T10:58:24.133Z,1164.38
2024-04-18T10:59:24.159Z,1198.12
2024-04-18T11:00:24.167Z,1057.50
2024-04-18T11:01:24.154Z,697.50
2024-04-18T11:02:24.191Z,540.00
2024-04-18T11:03:24.147Z,1170.00
2024-04-18T11:04:24.458Z,1395.00
2024-04-18T11:05:24.083Z,1794.38
2024-04-18T11:06:24.092Z,2025.00
2024-04-18T11:07:24.067Z,2137.50
2024-04-18T11:08:24.109Z,427.50
2024-04-18T11:09:24.087Z,382.50
2024-04-18T11:10:24.041Z,331.88
2024-04-18T11:11:24.075Z,326.25
2024-04-18T11:12:24.052Z,675.00
2024-04-18T11:13:24.014Z,1963.12
2024-04-18T11:14:24.012Z,2008.12
2024-04-18T11:15:24.104Z,1985.62
2024-04-18T11:16:24.043Z,433.12
2024-04-18T11:17:23.999Z,466.88
2024-04-18T11:18:24.322Z,286.88
2024-04-18T11:19:24.151Z,320.62
2024-04-18T11:20:23.974Z,2092.50
2024-04-18T11:21:24.031Z,2075.62
2024-04-18T11:22:23.975Z,2131.88
2024-04-18T11:23:32.625Z,2199.38
2024-04-18T11:24:25.030Z,860.62
2024-04-18T11:25:23.935Z,337.50
2024-04-18T11:26:23.926Z,309.38
2024-04-18T11:27:23.969Z,281.25
2024-04-18T11:28:23.915Z,253.12
2024-04-18T11:29:24.004Z,241.88
2024-04-18T11:30:23.944Z,225.00
2024-04-18T11:31:24.058Z,202.50
2024-04-18T11:32:24.131Z,168.75
2024-04-18T11:33:24.039Z,151.88
2024-04-18T11:34:23.900Z,140.62
2024-04-18T11:35:23.875Z,129.38
2024-04-18T11:36:23.902Z,123.75
2024-04-18T11:37:23.849Z,123.75
2024-04-18T11:38:23.893Z,118.12
2024-04-18T11:39:23.862Z,118.12
2024-04-18T11:40:23.828Z,118.12
2024-04-18T11:41:23.826Z,123.75
2024-04-18T11:42:23.841Z,118.12
2024-04-18T11:43:23.830Z,118.12
2024-04-18T11:44:23.824Z,118.12
2024-04-18T11:45:23.879Z,118.12
2024-04-18T11:46:23.788Z,118.12
2024-04-18T11:47:23.877Z,123.75
2024-04-18T11:48:23.923Z,135.00
2024-04-18T11:49:23.812Z,135.00
2024-04-18T11:50:23.760Z,123.75
2024-04-18T11:51:23.794Z,112.50
2024-04-18T11:52:23.746Z,106.88
2024-04-18T11:53:23.737Z,112.50
2024-04-18T11:54:23.830Z,106.88
2024-04-18T11:55:23.729Z,106.88
2024-04-18T11:56:23.713Z,106.88
2024-04-18T11:57:23.787Z,101.25
2024-04-18T11:58:23.703Z,101.25
2024-04-18T11:59:23.709Z,106.88
2024-04-18T12:00:23.737Z,118.12
2024-04-18T12:01:23.740Z,123.75
2024-04-18T12:02:24.642Z,135.00
2024-04-18T12:03:23.747Z,146.25
2024-04-18T12:04:23.835Z,163.12
2024-04-18T12:05:23.701Z,168.75
2024-04-18T12:06:23.702Z,191.25
2024-04-18T12:07:23.670Z,225.00
2024-04-18T12:08:23.646Z,253.12
2024-04-18T12:09:23.631Z,253.12
2024-04-18T12:10:23.664Z,258.75
2024-04-18T12:11:23.677Z,320.62
2024-04-18T12:12:23.641Z,500.62
2024-04-18T12:13:23.620Z,410.62
2024-04-18T12:14:23.670Z,421.88
2024-04-18T12:15:23.699Z,2013.75
2024-04-18T12:16:23.667Z,405.00
2024-04-18T12:17:23.570Z,309.38
2024-04-18T12:18:23.594Z,298.12
2024-04-18T12:19:23.591Z,292.50
2024-04-18T12:20:23.593Z,286.88
2024-04-18T12:21:23.616Z,281.25
2024-04-18T12:22:23.581Z,281.25
2024-04-18T12:23:23.532Z,281.25
2024-04-18T12:24:24.140Z,247.50
2024-04-18T12:25:23.534Z,208.12
2024-04-18T12:26:23.504Z,180.00
2024-04-18T12:27:23.516Z,180.00
2024-04-18T12:28:23.555Z,180.00
2024-04-18T12:29:23.490Z,168.75
2024-04-18T12:30:24.075Z,180.00
2024-04-18T12:31:23.508Z,185.62
2024-04-18T12:32:23.480Z,196.88
2024-04-18T12:33:23.520Z,219.38
2024-04-18T12:34:23.679Z,258.75
2024-04-18T12:35:23.473Z,303.75
2024-04-18T12:36:23.720Z,320.62
2024-04-18T12:37:23.448Z,596.25
2024-04-18T12:38:23.441Z,708.75
2024-04-18T12:39:23.454Z,725.62
2024-04-18T12:40:23.449Z,545.62
2024-04-18T12:41:23.431Z,264.38
2024-04-18T12:42:23.427Z,253.12
2024-04-18T12:43:23.374Z,303.75
2024-04-18T12:44:23.528Z,326.25
2024-04-18T12:45:23.391Z,703.12
2024-04-18T12:46:24.205Z,281.25
2024-04-18T12:47:23.399Z,320.62
2024-04-18T12:48:23.655Z,658.12
2024-04-18T12:49:23.406Z,495.00
2024-04-18T12:50:23.340Z,810.00